Time;durP1;ratioP1;P1;durP2;ratioP2;P2;SDS_P1;SDS_P2;PMS_P1;PMS_P2;Temp;Humidity;BMP_temperature;BMP_pressure;BME280_temperature;BME280_humidity;BME280_pressure;Samples;Min_cycle;Max_cycle;Signal;HPM_P1;HPM_P2
2022/06/20 00:00:20;;;;;;;;;;;25.30;43.00;;;29.38;27.63;100963.91;5097663;28;20367;-12
2022/06/20 00:02:49;;;;;;;;;;;25.30;43.00;;;29.41;27.70;100968.16;5116022;28;19926;-12
2022/06/20 00:05:18;;;;;;;;;;;25.30;43.00;;;29.45;27.36;100992.94;5115973;28;20010;-12
2022/06/20 00:07:44;;;;;;;;;;;25.30;43.00;;;29.41;27.44;100984.31;5115900;28;19944;-12
2022/06/20 00:10:11;;;;;;;;;;;25.20;42.90;;;29.44;27.64;101000.19;5116126;28;19931;-12
2022/06/20 00:12:37;;;;;;;;;;;25.30;43.00;;;29.44;27.53;101019.03;5116091;28;19916;-12
2022/06/20 00:15:03;;;;;;;;;;;25.30;43.00;;;29.44;27.45;100981.34;5115804;28;19916;-12
2022/06/20 00:17:29;;;;;;;;;;;25.30;43.00;;;29.43;27.43;100974.25;5116392;28;19916;-12
2022/06/20 00:19:55;;;;;;;;;;;25.20;43.10;;;29.40;27.70;100979.06;5115609;28;19970;-12
2022/06/20 00:22:21;;;;;;;;;;;25.20;42.90;;;29.40;27.68;100979.06;5115999;28;20323;-12
2022/06/20 00:24:47;;;;;;;;;;;25.20;42.90;;;29.42;27.70;101007.56;5115531;28;19915;-12
2022/06/20 00:27:13;;;;;;;;;;;25.20;42.90;;;29.42;27.48;101018.34;5115649;28;19916;-12
2022/06/20 00:29:40;;;;;;;;;;;25.20;43.00;;;29.41;27.42;101032.81;5096916;28;19916;-12
2022/06/20 00:32:07;;;;;;;;;;;25.20;43.00;;;29.38;27.48;101047.41;5115562;28;19919;-12
2022/06/20 00:34:32;;;;;;;;;;;25.20;43.00;;;29.41;27.48;101056.22;5115353;28;19965;-12
2022/06/20 00:36:58;;;;;;;;;;;25.20;42.90;;;29.41;27.44;101062.44;5115435;28;19915;-12
2022/06/20 00:39:24;;;;;;;;;;;25.30;43.00;;;29.37;27.45;101053.81;5115240;28;19916;-12
2022/06/20 00:41:50;;;;;;;;;;;25.20;43.10;;;29.38;27.71;101049.25;5096476;28;20322;-12
2022/06/20 00:44:28;;;;;;;;;;;25.20;43.00;;;29.42;27.73;101047.13;5095299;28;19916;-12
2022/06/20 00:46:59;;;;;;;;;;;25.20;43.00;;;29.37;27.46;101023.34;5097573;28;19947;-12
2022/06/20 00:49:29;;;;;;;;;;;25.20;43.00;;;29.41;27.58;101013.13;5097331;28;19951;-12
2022/06/20 00:52:15;;;;;;;;;;;25.20;43.00;;;29.41;27.65;101018.50;5115542;28;19922;-12
2022/06/20 00:54:48;;;;;;;;;;;25.20;43.00;;;29.36;27.59;101008.16;5097092;28;19969;-12
2022/06/20 00:57:21;;;;;;;;;;;25.20;43.00;;;29.34;27.60;100980.53;5115159;28;19963;-12
2022/06/20 00:59:55;;;;;;;;;;;25.20;43.00;;;29.38;27.46;100985.44;5097364;28;20278;-12
2022/06/20 01:02:25;;;;;;;;;;;25.20;43.00;;;29.38;27.53;100980.06;5095920;28;20257;-12
2022/06/20 01:04:59;;;;;;;;;;;25.20;43.00;;;29.35;27.49;100971.44;5096754;28;19915;-12
2022/06/20 01:07:35;;;;;;;;;;;25.20;43.00;;;29.31;27.47;100962.81;5096526;28;19924;-12
2022/06/20 01:10:02;;;;;;;;;;;25.20;43.00;;;29.37;27.67;100964.91;5114984;28;19945;-12
2022/06/20 01:12:30;;;;;;;;;;;25.20;43.00;;;29.37;27.74;100967.63;5096449;28;19965;-12
2022/06/20 01:14:56;;;;;;;;;;;25.20;43.00;;;29.35;27.75;100976.81;5115205;28;19923;-12
2022/06/20 01:17:32;;;;;;;;;;;25.20;43.00;;;29.33;27.42;100976.13;5114781;28;19980;-12
2022/06/20 01:20:05;;;;;;;;;;;25.20;43.00;;;29.32;27.50;100964.50;5114823;28;20271;-12
2022/06/20 01:22:49;;;;;;;;;;;25.20;43.00;;;29.37;27.66;100959.53;5114775;28;19962;-12
2022/06/20 01:25:31;;;;;;;;;;;25.20;43.00;;;29.35;27.63;100972.31;5096505;28;20014;-12
2022/06/20 01:27:59;;;;;;;;;;;25.20;43.00;;;29.32;27.78;100980.69;5114521;28;19966;-12
2022/06/20 01:30:27;;;;;;;;;;;25.20;43.00;;;29.32;27.53;100955.56;5114753;28;19985;-12
2022/06/20 01:32:55;;;;;;;;;;;25.20;43.00;;;29.32;27.56;100961.81;5114958;28;19915;-12
2022/06/20 01:38:09;;;;;;;;;;;25.20;43.00;;;29.31;27.57;100972.75;5096124;28;19915;-12
2022/06/20 01:40:35;;;;;;;;;;;25.20;43.00;;;29.31;27.58;100967.34;5114201;28;19916;-12
2022/06/20 01:43:01;;;;;;;;;;;25.20;43.10;;;29.34;27.70;100965.22;5114281;28;19916;-12
2022/06/20 01:48:18;;;;;;;;;;;25.20;43.00;;;29.26;27.77;100946.25;5098552;28;20111;-12
2022/06/20 01:50:45;;;;;;;;;;;25.20;43.00;;;29.34;27.54;100956.28;5114534;28;19922;-12
2022/06/20 01:53:13;;;;;;;;;;;25.20;43.00;;;29.32;27.61;100971.72;5113857;28;19916;-12
2022/06/20 01:55:40;;;;;;;;;;;25.10;43.00;;;29.29;27.63;100969.34;5095803;28;20279;-12
2022/06/20 01:58:13;;;;;;;;;;;25.10;43.00;;;29.34;27.50;100991.31;5093695;28;20320;-12
2022/06/20 02:00:39;;;;;;;;;;;25.20;43.10;;;29.28;27.62;100957.72;5114092;28;19916;-12
2022/06/20 02:03:07;;;;;;;;;;;25.20;43.10;;;29.33;27.43;100963.50;5094167;28;20268;-12
2022/06/20 02:05:33;;;;;;;;;;;25.20;43.10;;;29.29;27.66;100969.34;5093868;28;19916;-12
2022/06/20 02:08:06;;;;;;;;;;;25.20;43.10;;;29.27;27.58;100968.63;5113612;28;20951;-12
2022/06/20 02:10:40;;;;;;;;;;;25.10;43.00;;;29.27;27.70;100964.13;5095618;28;19915;-12
2022/06/20 02:13:06;;;;;;;;;;;25.10;43.00;;;29.32;27.52;100966.34;5093523;28;20018;-12
2022/06/20 02:15:32;;;;;;;;;;;25.10;43.00;;;29.31;27.68;100968.19;5094874;28;19951;-12
2022/06/20 02:18:01;;;;;;;;;;;25.20;43.10;;;29.27;27.72;100947.97;5094208;28;19923;-12
2022/06/20 02:20:29;;;;;;;;;;;25.10;43.00;;;29.31;27.59;100961.97;5094146;28;19920;-12
2022/06/20 02:22:56;;;;;;;;;;;25.10;43.00;;;29.28;27.77;100952.31;5093572;28;20006;-12
2022/06/20 02:25:25;;;;;;;;;;;25.10;43.00;;;29.30;27.77;100962.94;5095457;28;19915;-12
2022/06/20 02:27:53;;;;;;;;;;;25.10;43.00;;;29.31;27.50;100970.03;5095368;28;19930;-12
2022/06/20 02:30:19;;;;;;;;;;;25.10;43.10;;;29.25;27.68;100963.38;5095836;28;20010;-12
2022/06/20 02:32:49;;;;;;;;;;;25.10;43.00;;;29.26;27.51;100967.78;5113876;28;19915;-12
2022/06/20 02:35:17;;;;;;;;;;;25.10;43.00;;;29.26;27.70;100970.47;5095354;28;19958;-12
2022/06/20 02:37:44;;;;;;;;;;;25.10;43.00;;;29.27;27.61;100968.63;5094069;28;19923;-12
2022/06/20 02:40:12;;;;;;;;;;;25.10;43.00;;;29.32;27.60;100969.03;5095649;28;19923;-12
2022/06/20 02:42:43;;;;;;;;;;;25.10;43.00;;;29.30;27.44;100963.81;5095647;28;19916;-12
2022/06/20 02:45:11;;;;;;;;;;;25.10;43.00;;;29.27;27.50;100966.81;5114103;28;20355;-12
2022/06/20 02:47:42;;;;;;;;;;;25.10;43.10;;;29.25;27.51;100966.09;5113455;28;19942;-12
2022/06/20 02:50:09;;;;;;;;;;;25.10;43.00;;;29.29;27.76;100963.97;5094583;28;19924;-12
2022/06/20 02:52:41;;;;;;;;;;;25.10;43.10;;;29.23;27.55;100949.22;5113853;28;19972;-12
2022/06/20 02:55:07;;;;;;;;;;;25.10;43.10;;;29.29;27.45;100958.59;5095231;28;19916;-12
2022/06/20 02:57:37;;;;;;;;;;;25.10;43.10;;;29.24;27.51;100942.03;5076725;28;19916;-12
2022/06/20 03:00:08;;;;;;;;;;;25.10;43.10;;;29.28;27.70;100957.72;5113285;28;19916;-12
2022/06/20 03:02:36;;;;;;;;;;;25.10;43.10;;;29.24;27.71;100950.94;5095717;28;20305;-12
2022/06/20 03:05:03;;;;;;;;;;;25.10;43.10;;;29.27;27.62;100966.81;5113931;28;19981;-12
2022/06/20 03:07:32;;;;;;;;;;;25.10;43.10;;;29.28;27.71;100992.72;5113062;28;20420;-12
2022/06/20 03:10:03;;;;;;;;;;;25.10;43.10;;;29.27;27.69;100996.44;5116791;28;19938;-12
2022/06/20 03:12:31;;;;;;;;;;;25.10;43.10;;;29.27;27.48;100984.78;5098595;28;20350;-12
2022/06/20 03:14:59;;;;;;;;;;;25.10;43.10;;;29.28;27.55;100968.47;5116782;28;19916;-12
2022/06/20 03:17:25;;;;;;;;;;;25.10;43.10;;;29.24;27.45;100960.88;5116488;28;19923;-13
2022/06/20 03:19:56;;;;;;;;;;;25.10;43.00;;;29.21;27.85;100970.09;5098333;28;19937;-12
2022/06/20 03:22:27;;;;;;;;;;;25.10;43.10;;;29.24;27.51;100977.88;5098468;28;20375;-12
2022/06/20 03:24:54;;;;;;;;;;;25.10;43.00;;;29.30;27.43;100971.03;5117000;28;19931;-12
2022/06/20 03:27:26;;;;;;;;;;;25.10;43.00;;;29.29;27.45;100983.66;5116811;28;19960;-12
2022/06/20 03:29:54;;;;;;;;;;;25.10;43.00;;;29.25;27.69;100958.00;5098328;28;20351;-12
2022/06/20 03:32:24;;;;;;;;;;;25.20;43.00;;;29.31;27.53;100991.59;5096534;28;19923;-12
2022/06/20 03:34:53;;;;;;;;;;;25.10;42.90;;;29.33;27.51;100981.50;5116416;28;19916;-12
2022/06/20 03:37:20;;;;;;;;;;;25.20;43.00;;;29.31;27.69;100986.22;5116082;28;19923;-13
2022/06/20 03:39:47;;;;;;;;;;;25.20;42.90;;;29.29;27.57;100986.34;5098103;28;19961;-13
2022/06/20 03:42:14;;;;;;;;;;;25.20;42.90;;;29.30;27.58;100974.59;5116305;28;19916;-12
2022/06/20 03:44:50;;;;;;;;;;;25.20;42.90;;;29.31;27.42;100991.59;5098330;28;20240;-12
2022/06/20 03:47:23;;;;;;;;;;;25.20;42.90;;;29.33;27.59;100981.50;5098259;28;20025;-13
2022/06/20 03:50:01;;;;;;;;;;;25.20;42.90;;;29.33;27.89;100978.81;5098020;28;19915;-12
2022/06/20 03:52:32;;;;;;;;;;;25.20;42.90;;;29.31;27.58;100972.75;5097939;28;19966;-12
2022/06/20 03:55:08;;;;;;;;;;;25.20;42.90;;;29.35;27.58;100983.06;5098142;28;20249;-12
2022/06/20 03:57:56;;;;;;;;;;;25.20;42.90;;;29.36;27.40;100981.22;5097674;28;19983;-13
2022/06/20 04:00:35;;;;;;;;;;;25.20;42.80;;;29.37;27.59;100988.31;5115972;28;20324;-12
2022/06/20 04:03:12;;;;;;;;;;;25.30;42.80;;;29.36;27.60;100979.38;5115892;28;19915;-12
2022/06/20 04:05:45;;;;;;;;;;;25.30;42.80;;;29.38;27.47;100971.16;5095488;28;20410;-12
2022/06/20 04:11:23;;;;;;;;;;;25.40;42.70;;;29.47;27.42;100955.94;5100424;28;20006;-12
2022/06/20 04:14:01;;;;;;;;;;;25.50;42.60;;;29.48;27.49;100955.78;5115700;28;19916;-12
2022/06/20 04:16:31;;;;;;;;;;;25.50;42.60;;;29.60;27.28;100974.44;5095242;28;19916;-12
2022/06/20 04:19:09;;;;;;;;;;;25.60;42.50;;;29.62;27.49;100980.53;5115573;28;19922;-12
2022/06/20 04:21:50;;;;;;;;;;;25.60;42.40;;;29.61;27.33;100970.78;5115832;28;20368;-12
2022/06/20 04:24:23;;;;;;;;;;;25.70;42.50;;;29.68;27.39;100980.78;5115992;28;19919;-12
2022/06/20 04:27:10;;;;;;;;;;;25.60;42.40;;;29.64;27.50;100975.88;5097411;28;19915;-12
2022/06/20 04:29:47;;;;;;;;;;;25.60;42.40;;;29.67;27.52;100984.50;5097639;28;19985;-12
2022/06/20 04:32:16;;;;;;;;;;;25.60;42.40;;;29.70;27.33;100984.19;5116057;28;19920;-12
2022/06/20 04:34:47;;;;;;;;;;;25.60;42.40;;;29.69;27.41;100973.56;5097230;28;19915;-12
2022/06/20 04:37:29;;;;;;;;;;;25.60;42.40;;;29.77;27.15;100978.19;5115447;28;19916;-12
2022/06/20 04:40:00;;;;;;;;;;;25.70;42.40;;;29.73;27.33;100975.78;5097110;28;19916;-12
2022/06/20 04:42:28;;;;;;;;;;;25.70;42.40;;;29.78;27.13;100983.47;5097059;28;19973;-12
2022/06/20 04:45:00;;;;;;;;;;;25.70;42.50;;;29.77;27.31;100978.19;5115678;28;20026;-12
2022/06/20 04:48:04;;;;;;;;;;;25.60;42.40;;;29.78;27.32;100971.84;5097162;28;19915;-13
2022/06/20 04:50:32;;;;;;;;;;;25.70;42.50;;;29.78;27.38;100971.84;5115581;28;20348;-12
2022/06/20 04:53:05;;;;;;;;;;;25.70;42.40;;;29.75;27.35;100965.72;5097383;28;19915;-12
2022/06/20 04:55:31;;;;;;;;;;;25.70;42.30;;;29.83;27.30;100975.78;5098184;28;19916;-12
2022/06/20 04:57:59;;;;;;;;;;;25.80;42.40;;;29.87;27.28;100979.00;5114935;28;20283;-12
2022/06/20 05:00:32;;;;;;;;;;;25.80;42.30;;;29.90;27.24;100973.31;5096850;28;19919;-12
2022/06/20 05:02:57;;;;;;;;;;;25.80;42.20;;;29.87;27.29;100957.44;5096831;28;19915;-12
2022/06/20 05:05:26;;;;;;;;;;;25.90;42.20;;;29.91;27.17;100962.38;5115045;28;19915;-12
2022/06/20 05:07:52;;;;;;;;;;;25.90;42.10;;;29.95;27.16;100960.22;5114672;28;19915;-12
2022/06/20 05:10:21;;;;;;;;;;;25.90;42.00;;;30.00;27.16;100960.63;5115300;28;19922;-12
2022/06/20 05:12:52;;;;;;;;;;;26.00;42.00;;;30.02;27.06;100955.06;5096537;28;19999;-12
2022/06/20 05:15:34;;;;;;;;;;;26.10;41.90;;;30.08;27.10;100957.16;5096369;28;20480;-12
2022/06/20 05:18:07;;;;;;;;;;;26.20;41.80;;;30.10;27.02;100949.75;5096246;28;19916;-12
2022/06/20 05:20:35;;;;;;;;;;;26.20;41.70;;;30.13;26.90;100933.28;5114634;28;19938;-12
2022/06/20 05:23:05;;;;;;;;;;;26.30;41.60;;;30.21;26.89;100940.63;5095584;28;19923;-12
2022/06/20 05:25:32;;;;;;;;;;;26.30;41.50;;;30.27;26.89;100938.16;5095227;28;19915;-12
2022/06/20 05:28:01;;;;;;;;;;;26.40;41.50;;;30.27;26.83;100921.97;5114401;28;19941;-12
2022/06/20 05:30:30;;;;;;;;;;;26.40;41.40;;;30.32;26.79;100921.47;5114401;28;19916;-12
2022/06/20 05:33:05;;;;;;;;;;;26.40;41.40;;;30.37;26.60;100924.63;5093050;28;19923;-12
2022/06/20 05:35:44;;;;;;;;;;;26.50;41.40;;;30.42;26.75;100930.38;5114302;28;19915;-12
2022/06/20 05:38:18;;;;;;;;;;;26.50;41.30;;;30.46;26.75;100930.91;5114070;28;19915;-12
2022/06/20 05:40:47;;;;;;;;;;;26.50;41.30;;;30.44;26.68;100911.34;5114530;28;19919;-12
2022/06/20 05:43:20;;;;;;;;;;;26.60;41.30;;;30.51;26.56;100911.56;5096156;28;19915;-12
2022/06/20 05:46:06;;;;;;;;;;;26.60;41.30;;;30.54;26.78;100913.91;5114370;28;19919;-12
2022/06/20 05:48:43;;;;;;;;;;;26.60;41.20;;;30.58;26.66;100912.63;5114189;28;19915;-12
2022/06/20 05:51:13;;;;;;;;;;;26.60;41.20;;;30.62;26.60;100912.16;5114386;28;19959;-12
2022/06/20 05:53:42;;;;;;;;;;;26.70;41.20;;;30.63;26.71;100903.03;5114105;28;19938;-12
2022/06/20 05:56:18;;;;;;;;;;;26.70;41.10;;;30.68;26.42;100894.47;5114291;28;19916;-12
2022/06/20 05:58:45;;;;;;;;;;;26.70;41.10;;;30.65;26.36;100894.78;5095823;28;19915;-12
2022/06/20 06:01:17;;;;;;;;;;;26.70;41.10;;;30.67;26.40;100893.63;5095142;28;19916;-12
2022/06/20 06:04:00;;;;;;;;;;;26.70;41.10;;;30.71;26.17;100896.84;5096008;28;20008;-12
2022/06/20 06:06:35;;;;;;;;;;;26.70;41.00;;;30.71;26.44;100893.31;5113742;28;19945;-12
2022/06/20 06:09:11;;;;;;;;;;;26.80;41.00;;;30.79;26.34;100905.00;5095706;28;19915;-12
2022/06/20 06:11:41;;;;;;;;;;;26.80;40.90;;;30.78;26.27;100880.88;5094171;28;19916;-13
2022/06/20 06:14:15;;;;;;;;;;;26.80;40.90;;;30.76;26.38;100886.44;5094158;28;20014;-13
2022/06/20 06:16:50;;;;;;;;;;;26.80;41.00;;;30.82;26.17;100895.72;5114277;28;19942;-13
2022/06/20 06:19:38;;;;;;;;;;;26.70;41.00;;;30.82;26.20;100893.91;5095294;28;19980;-13
2022/06/20 06:22:09;;;;;;;;;;;26.70;41.00;;;30.78;26.43;100892.50;5095597;28;19915;-13
2022/06/20 06:24:37;;;;;;;;;;;26.70;41.10;;;30.77;26.33;100888.13;5095471;28;19915;-13
2022/06/20 06:27:04;;;;;;;;;;;26.70;41.10;;;30.76;26.21;100885.59;5113556;28;19915;-13
2022/06/20 06:29:43;;;;;;;;;;;26.70;41.10;;;30.81;26.20;100899.44;5095119;28;19923;-13
2022/06/20 06:32:16;;;;;;;;;;;26.70;41.20;;;30.79;26.16;100896.91;5113647;28;19916;-13
2022/06/20 06:34:50;;;;;;;;;;;26.70;41.20;;;30.72;26.33;100884.19;5095286;28;19915;-13
2022/06/20 06:37:44;;;;;;;;;;;26.60;41.20;;;30.75;26.16;100897.38;5113452;28;19977;-14
2022/06/20 06:40:15;;;;;;;;;;;26.50;41.30;;;30.67;26.43;100896.34;5075364;28;19977;-13
2022/06/20 06:42:41;;;;;;;;;;;26.50;41.40;;;30.65;26.27;100890.22;5113427;28;19949;-13
2022/06/20 06:45:16;;;;;;;;;;;26.50;41.40;;;30.69;26.40;100906.97;5095119;28;19915;-13
2022/06/20 06:47:46;;;;;;;;;;;26.40;41.40;;;30.62;26.25;100897.78;5094065;28;19967;-13
2022/06/20 06:50:31;;;;;;;;;;;26.40;41.40;;;30.65;26.38;100909.13;5095094;28;19916;-13
2022/06/20 06:53:02;;;;;;;;;;;26.40;41.50;;;30.62;26.52;100909.44;5113551;28;19922;-12
2022/06/20 06:55:36;;;;;;;;;;;26.40;41.50;;;30.61;26.29;100915.00;5113186;28;19916;-11
2022/06/20 06:58:10;;;;;;;;;;;26.40;41.50;;;30.56;26.39;100907.38;5093767;28;20291;-12
2022/06/20 07:00:46;;;;;;;;;;;26.30;41.50;;;30.57;26.45;100921.72;5113141;28;19920;-12
2022/06/20 07:03:19;;;;;;;;;;;26.40;41.60;;;30.58;26.34;100918.84;5093098;28;20372;-11
2022/06/20 07:05:49;;;;;;;;;;;26.30;41.60;;;30.55;26.38;100912.94;5112822;28;19967;-12
2022/06/20 07:08:23;;;;;;;;;;;26.40;41.60;;;30.57;26.34;100919.88;5112709;28;19930;-13
2022/06/20 07:11:07;;;;;;;;;;;26.40;41.60;;;30.56;26.39;100918.16;5113119;28;19939;-12
2022/06/20 07:13:38;;;;;;;;;;;26.40;41.40;;;30.57;26.54;100906.38;5094702;28;19958;-12
2022/06/20 07:16:18;;;;;;;;;;;26.50;41.40;;;30.59;26.42;100908.91;5094777;28;20014;-13
2022/06/20 07:18:47;;;;;;;;;;;26.50;41.30;;;30.62;26.27;100900.50;5112888;28;19915;-12
2022/06/20 07:21:17;;;;;;;;;;;26.60;41.20;;;30.73;26.26;100918.28;5094380;28;19966;-13
2022/06/20 07:23:45;;;;;;;;;;;26.70;41.10;;;30.76;26.15;100909.88;5112848;28;20002;-12
2022/06/20 07:26:13;;;;;;;;;;;26.80;41.00;;;30.83;26.25;100917.16;5112813;28;20010;-12
2022/06/20 07:28:46;;;;;;;;;;;26.80;40.90;;;30.90;25.96;100919.25;5112298;28;20034;-13
2022/06/20 07:31:43;;;;;;;;;;;26.90;40.70;;;30.91;26.30;100912.84;5094524;28;19924;-12
2022/06/20 07:34:21;;;;;;;;;;;27.00;40.60;;;30.95;26.20;100914.22;5094384;28;19915;-13
2022/06/20 07:36:52;;;;;;;;;;;27.10;40.60;;;30.99;26.08;100911.06;5110762;28;19916;-13
2022/06/20 07:39:23;;;;;;;;;;;27.10;40.40;;;31.06;25.84;100923.91;5094355;28;19916;-12
2022/06/20 07:41:58;;;;;;;;;;;27.20;40.40;;;31.13;25.69;100933.06;5112570;28;19981;-12
2022/06/20 07:44:42;;;;;;;;;;;27.20;40.30;;;31.16;25.84;100936.28;5095081;28;19976;-13
2022/06/20 07:47:14;;;;;;;;;;;27.10;40.30;;;31.15;25.87;100944.56;5092830;28;19916;-13
2022/06/20 07:49:50;;;;;;;;;;;27.20;40.40;;;31.17;25.92;100946.09;5112442;28;19945;-12
2022/06/20 07:52:30;;;;;;;;;;;27.30;40.30;;;31.24;25.73;100950.84;5112455;28;19915;-12
2022/06/20 07:54:59;;;;;;;;;;;27.30;40.20;;;31.26;25.66;100968.59;5094818;28;19985;-12
2022/06/20 07:57:32;;;;;;;;;;;27.30;40.20;;;31.26;25.45;100951.53;5115623;28;19981;-13
2022/06/20 08:00:05;;;;;;;;;;;27.30;40.30;;;31.24;25.66;100962.50;5116135;28;19916;-12
2022/06/20 08:02:35;;;;;;;;;;;27.20;40.30;;;31.21;25.64;100962.84;5115724;28;20398;-12
2022/06/20 08:05:03;;;;;;;;;;;27.10;40.30;;;31.23;25.77;100960.81;5116169;28;19955;-12
2022/06/20 08:07:36;;;;;;;;;;;27.10;40.40;;;31.16;25.80;100951.66;5115466;28;20382;-13
2022/06/20 08:10:10;;;;;;;;;;;27.10;40.40;;;31.16;25.57;100944.41;5098224;28;19974;-12
2022/06/20 08:12:50;;;;;;;;;;;27.10;40.50;;;31.16;25.53;100955.19;5080983;28;19916;-13
2022/06/20 08:15:26;;;;;;;;;;;27.00;40.60;;;31.10;25.86;100950.44;5097489;28;20394;-13
2022/06/20 08:17:53;;;;;;;;;;;26.90;40.70;;;31.02;25.85;100944.97;5115872;28;19916;-12
2022/06/20 08:20:19;;;;;;;;;;;26.80;40.80;;;31.01;25.65;100941.44;5116075;28;19924;-13
2022/06/20 08:22:48;;;;;;;;;;;26.70;40.90;;;30.97;25.86;100940.09;5115586;28;19938;-12
2022/06/20 08:25:24;;;;;;;;;;;26.70;41.00;;;30.92;25.92;100946.91;5115928;28;19915;-13
2022/06/20 08:28:03;;;;;;;;;;;26.60;41.10;;;30.85;25.93;100939.44;5115740;28;19916;-13
2022/06/20 08:30:38;;;;;;;;;;;26.50;41.20;;;30.80;25.92;100932.84;5116041;28;19922;-12
2022/06/20 08:33:24;;;;;;;;;;;26.50;41.20;;;30.77;25.99;100927.75;5097483;28;19923;-13
2022/06/20 08:36:03;;;;;;;;;;;26.50;41.30;;;30.76;25.98;100928.78;5096967;28;20324;-13
2022/06/20 08:38:41;;;;;;;;;;;26.50;41.30;;;30.78;26.14;100922.19;5097411;28;20014;-12
2022/06/20 08:41:39;;;;;;;;;;;26.60;41.30;;;30.79;26.03;100926.59;5079941;28;20351;-13
2022/06/20 08:44:27;;;;;;;;;;;26.60;41.20;;;30.80;26.01;100925.56;5104102;28;19920;-13
2022/06/20 08:47:39;;;;;;;;;;;26.60;41.20;;;30.74;26.03;100920.84;5115778;28;19923;-12
2022/06/20 08:50:30;;;;;;;;;;;26.60;41.20;;;30.74;26.00;100930.75;5115064;28;20404;-13
2022/06/20 08:53:24;;;;;;;;;;;26.50;41.30;;;30.74;26.08;100942.44;5114930;28;20393;-13
2022/06/20 08:56:14;;;;;;;;;;;26.50;41.30;;;30.74;26.19;100941.56;5096236;28;19923;-13
2022/06/20 08:59:06;;;;;;;;;;;26.60;41.30;;;30.74;26.29;100933.47;5096482;28;19920;-13
2022/06/20 09:01:46;;;;;;;;;;;26.70;41.30;;;30.77;26.23;100941.25;5114850;28;20356;-13
2022/06/20 09:04:23;;;;;;;;;;;26.70;41.30;;;30.80;26.35;100946.34;5114945;28;19923;-13
2022/06/20 09:07:10;;;;;;;;;;;26.70;41.20;;;30.84;26.48;100950.44;5115217;28;19955;-13
2022/06/20 09:09:58;;;;;;;;;;;26.80;41.30;;;30.81;26.21;100942.63;5115031;28;20006;-13
2022/06/20 09:12:47;;;;;;;;;;;26.80;41.30;;;30.84;26.32;100948.56;5114735;28;19915;-12
2022/06/20 09:15:19;;;;;;;;;;;26.80;41.30;;;30.89;26.29;100947.22;5096124;28;19915;-12
2022/06/20 09:18:22;;;;;;;;;;;26.80;41.40;;;30.89;26.44;100948.09;5114477;28;19916;-12
2022/06/20 09:21:06;;;;;;;;;;;26.80;41.40;;;30.84;26.56;100942.34;5114663;28;19916;-12
2022/06/20 09:23:44;;;;;;;;;;;26.80;41.50;;;30.81;26.47;100935.38;5114382;28;20397;-13
2022/06/20 09:27:05;;;;;;;;;;;26.80;41.70;;;30.83;26.53;100932.53;5095961;28;19938;-12
2022/06/20 09:30:09;;;;;;;;;;;26.80;41.60;;;30.96;26.54;100937.53;5066771;28;19941;-12
2022/06/20 09:32:37;;;;;;;;;;;26.90;41.40;;;30.98;26.21;100930.97;5059514;28;19964;-12
2022/06/20 09:35:23;;;;;;;;;;;27.00;41.30;;;30.97;26.42;100921.19;5114132;28;19941;-12
2022/06/20 09:38:17;;;;;;;;;;;27.00;41.30;;;31.01;26.18;100919.00;5114056;28;19965;-12
2022/06/20 09:40:56;;;;;;;;;;;27.00;41.20;;;31.02;26.19;100921.53;5095499;28;19924;-12
2022/06/20 09:43:40;;;;;;;;;;;27.00;41.10;;;31.01;26.10;100919.00;5095699;28;19923;-12
2022/06/20 09:46:30;;;;;;;;;;;27.00;41.10;;;31.02;25.95;100913.44;5113752;28;19915;-12
2022/06/20 09:49:00;;;;;;;;;;;26.90;41.10;;;30.99;26.34;100899.38;5113942;28;19915;-12
2022/06/20 09:51:49;;;;;;;;;;;26.90;41.20;;;30.95;26.24;100903.44;5095306;28;20002;-12
2022/06/20 09:54:26;;;;;;;;;;;26.90;41.20;;;30.96;26.06;100924.03;5113742;28;19920;-12
2022/06/20 09:57:04;;;;;;;;;;;26.90;41.10;;;30.98;26.30;100922.03;5095535;28;19915;-12
2022/06/20 09:59:42;;;;;;;;;;;26.80;41.10;;;30.93;26.14;100913.53;5114145;28;20369;-12
2022/06/20 10:02:35;;;;;;;;;;;26.90;41.10;;;30.96;26.12;100907.84;5079029;28;19920;-13
2022/06/20 10:05:31;;;;;;;;;;;26.90;41.00;;;30.95;26.02;100908.84;5113538;28;19965;-12
2022/06/20 10:08:16;;;;;;;;;;;26.90;40.90;;;30.95;26.04;100909.66;5093842;28;19920;-14
2022/06/20 10:10:51;;;;;;;;;;;26.90;40.90;;;30.98;26.08;100905.81;5093559;28;19916;-12
2022/06/20 10:13:39;;;;;;;;;;;27.00;40.90;;;30.96;25.64;100899.75;5094136;28;20276;-12
2022/06/20 10:16:34;;;;;;;;;;;26.90;40.80;;;31.02;26.15;100909.88;5113719;28;19952;-12
2022/06/20 10:19:22;;;;;;;;;;;26.90;40.80;;;30.95;25.80;100901.56;5076838;28;19915;-12
2022/06/20 10:21:59;;;;;;;;;;;26.90;40.80;;;31.00;25.83;100912.72;5094053;28;19923;-12
2022/06/20 10:24:41;;;;;;;;;;;27.00;40.80;;;30.98;25.97;100903.97;5095165;28;20271;-11
2022/06/20 10:27:16;;;;;;;;;;;27.00;41.30;;;31.01;25.93;100911.75;5095791;28;19915;-12
2022/06/20 10:29:42;;;;;;;;;;;27.00;40.70;;;31.05;26.02;100912.25;5113911;28;19916;-12
2022/06/20 10:32:40;;;;;;;;;;;26.90;40.70;;;30.96;25.94;100903.28;5114102;28;19931;-12
2022/06/20 10:35:06;;;;;;;;;;;26.90;40.70;;;31.02;26.02;100907.19;5113371;28;19919;-12
2022/06/20 10:37:42;;;;;;;;;;;26.90;40.80;;;30.96;25.63;100905.13;5113757;28;19922;-12
2022/06/20 10:40:30;;;;;;;;;;;26.90;40.70;;;31.02;25.77;100918.84;5095086;28;19915;-12
2022/06/20 10:43:08;;;;;;;;;;;26.90;40.70;;;30.95;25.81;100906.97;5094874;28;19965;-12
2022/06/20 10:45:54;;;;;;;;;;;26.90;40.70;;;30.98;25.72;100920.16;5094104;28;19916;-13
2022/06/20 10:49:01;;;;;;;;;;;26.90;40.70;;;31.00;25.91;100920.84;5095665;28;19916;-12
2022/06/20 10:51:50;;;;;;;;;;;26.90;40.70;;;30.97;25.70;100921.19;5095513;28;19915;-12
2022/06/20 10:54:45;;;;;;;;;;;26.90;40.70;;;30.98;25.77;100928.25;5094944;28;19977;-12
2022/06/20 10:57:43;;;;;;;;;;;26.90;40.70;;;30.94;25.83;100926.00;5091007;28;19924;-13
2022/06/20 11:00:20;;;;;;;;;;;26.90;40.60;;;30.98;25.92;100928.25;5113178;28;19954;-13
2022/06/20 11:03:06;;;;;;;;;;;26.90;40.50;;;30.95;25.95;100925.03;5113414;28;19984;-13
2022/06/20 11:05:39;;;;;;;;;;;26.90;40.50;;;31.00;25.76;100934.34;5112994;28;19916;-12
2022/06/20 11:09:03;;;;;;;;;;;26.90;40.50;;;31.02;25.75;100934.19;5113164;28;19916;-12
2022/06/20 11:11:37;;;;;;;;;;;27.00;40.50;;;30.99;25.80;100943.47;5010383;28;19933;-13
2022/06/20 11:14:33;;;;;;;;;;;27.00;40.50;;;31.03;25.66;100944.00;5010654;28;19917;-12
2022/06/20 11:17:17;;;;;;;;;;;27.00;40.50;;;31.01;25.73;100944.16;5085174;28;19974;-13
2022/06/20 11:20:19;;;;;;;;;;;26.90;40.50;;;30.99;25.62;100940.75;5095166;28;20356;-12
2022/06/20 11:22:54;;;;;;;;;;;26.90;40.50;;;30.92;25.76;100936.94;5094951;28;19915;-13
2022/06/20 11:25:50;;;;;;;;;;;26.90;40.50;;;30.96;25.88;100948.34;5112770;28;19922;-13
2022/06/20 11:28:45;;;;;;;;;;;26.80;40.50;;;30.95;25.91;100944.78;5093774;28;19920;-13
2022/06/20 11:31:37;;;;;;;;;;;26.80;40.50;;;30.95;25.84;100949.34;5097041;28;20006;-13
2022/06/20 11:34:11;;;;;;;;;;;26.80;40.50;;;30.95;25.62;100944.78;5098026;28;20018;-12
2022/06/20 11:36:43;;;;;;;;;;;26.90;40.50;;;30.96;25.74;100941.06;5116218;28;20375;-12
2022/06/20 11:39:51;;;;;;;;;;;26.90;40.50;;;30.97;25.67;100947.31;5113201;28;20011;-13
2022/06/20 11:42:40;;;;;;;;;;;26.90;40.50;;;30.95;25.69;100947.47;5081588;28;19916;-12
2022/06/20 11:45:41;;;;;;;;;;;26.90;40.50;;;30.90;25.80;100933.56;5097506;28;20275;-15
2022/06/20 11:48:21;;;;;;;;;;;26.90;40.50;;;30.93;25.79;100927.03;5110503;28;19922;-12
2022/06/20 11:51:04;;;;;;;;;;;26.90;40.40;;;30.97;25.68;100945.47;5116380;28;20064;-13
2022/06/20 11:53:54;;;;;;;;;;;26.90;40.30;;;30.98;25.43;100938.22;5116130;28;19916;-12
2022/06/20 11:56:33;;;;;;;;;;;26.90;40.30;;;30.97;25.72;100933.81;5115764;28;20637;-13